Time;durP1;ratioP1;P1;durP2;ratioP2;P2;SDS_P1;SDS_P2;PMS_P1;PMS_P2;Temp;Humidity;BMP_temperature;BMP_pressure;BME280_temperature;BME280_humidity;BME280_pressure;Samples;Min_cycle;Max_cycle;Signal;HPM_P1;HPM_P2
2021/09/22 00:01:27;;;;;;;8.00;4.13;;;;;;;13.63;100.00;101991.78;5055263;28;20447;-69
2021/09/22 00:03:53;;;;;;;4.47;3.60;;;;;;;13.65;100.00;101987.94;5054875;28;21009;-68
2021/09/22 00:06:21;;;;;;;16.57;3.60;;;;;;;13.67;100.00;101994.72;5054891;28;20434;-68
2021/09/22 00:08:48;;;;;;;4.90;3.37;;;;;;;13.66;100.00;101998.53;5055069;28;20450;-68
2021/09/22 00:11:14;;;;;;;10.93;3.60;;;;;;;13.58;100.00;101997.25;5054958;28;20446;-69
2021/09/22 00:13:40;;;;;;;7.93;5.43;;;;;;;13.62;100.00;101998.28;5054969;28;20457;-68
2021/09/22 00:16:07;;;;;;;5.80;3.17;;;;;;;13.63;100.00;101994.50;5054861;28;20486;-68
2021/09/22 00:18:34;;;;;;;7.23;5.60;;;;;;;13.62;100.00;101992.03;5053807;28;20434;-69
2021/09/22 00:21:01;;;;;;;11.00;4.40;;;;;;;13.61;100.00;101999.41;5054879;28;20542;-69
2021/09/22 00:23:29;;;;;;;6.23;3.73;;;;;;;13.59;100.00;101988.00;5054828;28;20834;-69
2021/09/22 00:25:56;;;;;;;5.47;3.47;;;;;;;13.61;100.00;101990.44;5054801;28;20444;-69
2021/09/22 00:28:22;;;;;;;6.87;4.17;;;;;;;13.59;100.00;101988.00;5054752;28;20446;-69
2021/09/22 00:30:49;;;;;;;10.07;3.90;;;;;;;13.58;100.00;101991.00;5054377;28;20442;-69
2021/09/22 00:33:15;;;;;;;9.40;3.97;;;;;;;13.54;100.00;101981.78;5054327;28;20480;-69
2021/09/22 00:35:42;;;;;;;10.07;5.50;;;;;;;13.49;100.00;101977.19;5054501;28;20489;-69
2021/09/22 00:38:08;;;;;;;4.40;3.47;;;;;;;13.47;100.00;101981.31;5054564;28;20442;-69
2021/09/22 00:40:36;;;;;;;6.70;2.73;;;;;;;13.42;100.00;101978.63;5054407;28;20446;-69
2021/09/22 00:43:03;;;;;;;5.17;3.47;;;;;;;13.39;100.00;101982.72;5054366;28;20442;-68
2021/09/22 00:45:30;;;;;;;5.43;4.03;;;;;;;13.33;100.00;101984.69;5054420;28;20484;-69
2021/09/22 00:47:57;;;;;;;4.90;3.23;;;;;;;13.32;100.00;101991.19;5054386;28;20478;-68
2021/09/22 00:50:24;;;;;;;7.07;3.80;;;;;;;13.29;100.00;101982.81;5054000;28;20824;-68
2021/09/22 00:52:51;;;;;;;3.90;2.77;;;;;;;13.31;100.00;101978.69;5054151;28;20450;-68
2021/09/22 00:55:17;;;;;;;9.23;3.23;;;;;;;13.33;100.00;101978.44;5053918;28;20477;-69
2021/09/22 00:57:50;;;;;;;9.57;4.30;;;;;;;13.29;100.00;101975.47;5053901;28;20943;-69
2021/09/22 01:00:18;;;;;;;6.03;3.53;;;;;;;13.24;100.00;101977.44;5054179;28;20501;-68
2021/09/22 01:02:47;;;;;;;7.80;3.73;;;;;;;13.18;100.00;101975.78;5053984;28;20438;-67
2021/09/22 01:05:15;;;;;;;9.53;2.90;;;;;;;13.19;100.00;101964.63;5053998;28;20465;-69
2021/09/22 01:07:42;;;;;;;7.93;2.20;;;;;;;13.19;100.00;101980.13;5053971;28;20450;-69
2021/09/22 01:10:09;;;;;;;7.07;4.07;;;;;;;13.20;100.00;101973.63;5053699;28;20985;-69
2021/09/22 01:12:35;;;;;;;2.67;2.30;;;;;;;13.22;100.00;101969.53;5053583;28;20819;-69
2021/09/22 01:15:04;;;;;;;10.43;3.87;;;;;;;13.13;100.00;101969.28;5053414;28;20497;-69
2021/09/22 01:17:32;;;;;;;6.00;2.43;;;;;;;13.14;100.00;101973.63;5053810;28;20450;-69
2021/09/22 01:19:59;;;;;;;10.23;3.40;;;;;;;13.15;100.00;101977.19;5053805;28;20525;-69
2021/09/22 01:22:27;;;;;;;3.30;2.73;;;;;;;13.20;100.00;101979.88;5053777;28;20807;-69
2021/09/22 01:24:54;;;;;;;9.13;2.67;;;;;;;13.22;100.00;101988.56;5053588;28;20461;-70
2021/09/22 01:27:21;;;;;;;6.50;2.30;;;;;;;13.23;100.00;101978.50;5053644;28;20789;-69
2021/09/22 01:29:48;;;;;;;8.30;2.37;;;;;;;13.27;100.00;101977.66;5053375;28;20523;-69
2021/09/22 01:32:14;;;;;;;6.90;3.13;;;;;;;13.30;100.00;101982.53;5053703;28;20445;-69
2021/09/22 01:34:41;;;;;;;7.33;2.90;;;;;;;13.29;100.00;101989.06;5053093;28;20474;-69
2021/09/22 01:37:08;;;;;;;3.07;2.00;;;;;;;13.26;100.00;101981.47;5053534;28;20446;-69
2021/09/22 01:39:40;;;;;;;4.53;2.20;;;;;;;13.20;100.00;101988.03;5053486;28;20445;-69
2021/09/22 01:42:07;;;;;;;2.33;1.80;;;;;;;13.10;100.00;101980.75;5053422;28;20442;-69
2021/09/22 01:44:34;;;;;;;5.00;1.67;;;;;;;13.05;100.00;101985.41;5053347;28;20465;-69
2021/09/22 01:47:00;;;;;;;5.63;2.07;;;;;;;13.07;100.00;101983.22;5053355;28;20473;-70
2021/09/22 01:49:28;;;;;;;2.40;2.07;;;;;;;13.03;100.00;101984.88;5053024;28;20449;-69
2021/09/22 01:51:57;;;;;;;11.20;3.10;;;;;;;12.99;100.00;101971.03;5053336;28;20453;-69
2021/09/22 01:54:24;;;;;;;13.30;2.73;;;;;;;12.96;100.00;101985.19;5053215;28;20474;-68
2021/09/22 01:56:52;;;;;;;3.00;2.37;;;;;;;12.93;100.00;101984.97;5053151;28;20478;-68
2021/09/22 01:59:20;;;;;;;5.63;2.13;;;;;;;12.85;100.00;101989.09;5053191;28;20445;-69
2021/09/22 02:01:46;;;;;;;16.47;3.10;;;;;;;12.84;100.00;101982.84;5053141;28;20445;-69
2021/09/22 02:04:13;;;;;;;7.17;1.97;;;;;;;12.81;100.00;101988.84;5053077;28;20863;-69
2021/09/22 02:06:39;;;;;;;3.13;2.27;;;;;;;12.84;100.00;101977.41;5053107;28;20446;-69
2021/09/22 02:09:06;;;;;;;1.90;1.40;;;;;;;12.80;100.00;101983.69;5053101;28;20450;-69
2021/09/22 02:11:32;;;;;;;3.53;2.03;;;;;;;12.80;100.00;101984.50;5053059;28;20442;-69
2021/09/22 02:14:00;;;;;;;8.47;3.30;;;;;;;12.77;100.00;101984.25;5052913;28;20466;-69
2021/09/22 02:16:26;;;;;;;6.27;1.70;;;;;;;12.75;100.00;101994.56;5053040;28;20482;-70
2021/09/22 02:18:53;;;;;;;8.23;1.97;;;;;;;12.77;100.00;101993.19;5053149;28;20798;-70
2021/09/22 02:21:19;;;;;;;4.63;1.67;;;;;;;12.80;100.00;101998.09;5052969;28;20453;-69
2021/09/22 02:23:46;;;;;;;4.23;1.60;;;;;;;12.82;100.00;101997.81;5052924;28;20469;-69
2021/09/22 02:26:12;;;;;;;3.20;1.00;;;;;;;12.79;100.00;101987.47;5052990;28;20446;-69
2021/09/22 02:28:40;;;;;;;25.97;2.90;;;;;;;12.76;100.00;101996.22;5052876;28;20453;-69
2021/09/22 02:31:08;;;;;;;2.00;1.27;;;;;;;12.76;100.00;102002.47;5052889;28;20805;-69
2021/09/22 02:33:34;;;;;;;15.80;2.53;;;;;;;12.76;100.00;101997.03;5052567;28;20866;-69
2021/09/22 02:36:00;;;;;;;2.33;1.80;;;;;;;12.78;100.00;101994.81;5052694;28;20478;-70
2021/09/22 02:38:27;;;;;;;6.10;2.03;;;;;;;12.80;100.00;101998.09;5053080;28;20452;-69
2021/09/22 02:40:53;;;;;;;18.03;1.77;;;;;;;12.69;100.00;101991.06;5053485;28;20446;-70
2021/09/22 02:43:20;;;;;;;3.27;1.50;;;;;;;12.63;100.00;101997.63;5056756;28;20466;-69
2021/09/22 02:45:46;;;;;;;8.57;1.57;;;;;;;12.65;100.00;101998.16;5056645;28;20442;-70
2021/09/22 02:48:14;;;;;;;1.80;1.23;;;;;;;12.64;100.00;101999.25;5056349;28;20981;-69
2021/09/22 02:50:40;;;;;;;2.80;1.50;;;;;;;12.68;100.00;101996.81;5056727;28;20468;-69
2021/09/22 02:53:07;;;;;;;6.90;1.73;;;;;;;12.66;100.00;101991.66;5056513;28;20444;-69
2021/09/22 02:55:33;;;;;;;8.13;2.10;;;;;;;12.58;100.00;101994.94;5056433;28;20477;-69
2021/09/22 02:58:00;;;;;;;4.40;2.13;;;;;;;12.56;100.00;101991.69;5056441;28;20446;-69
2021/09/22 03:00:26;;;;;;;11.50;2.07;;;;;;;12.50;100.00;101993.63;5056380;28;20446;-70
2021/09/22 03:02:53;;;;;;;17.53;2.53;;;;;;;12.50;100.00;101987.38;5056399;28;20446;-69
2021/09/22 03:05:20;;;;;;;3.87;1.20;;;;;;;12.50;100.00;101992.81;5056074;28;20963;-68
2021/09/22 03:07:47;;;;;;;7.70;1.90;;;;;;;12.50;100.00;101995.53;5055947;28;20966;-69
2021/09/22 03:10:14;;;;;;;3.37;1.37;;;;;;;12.47;100.00;101993.34;5056180;28;20449;-69
2021/09/22 03:12:40;;;;;;;1.80;1.33;;;;;;;12.46;100.00;101992.56;5056319;28;20812;-69
2021/09/22 03:15:07;;;;;;;6.50;1.80;;;;;;;12.45;100.00;101990.13;5055961;28;20454;-69
2021/09/22 03:17:34;;;;;;;2.60;1.63;;;;;;;12.45;100.00;101990.13;5055613;28;20804;-69
2021/09/22 03:20:00;;;;;;;5.00;1.60;;;;;;;12.39;100.00;101997.47;5056052;28;20445;-69
2021/09/22 03:22:28;;;;;;;8.63;2.17;;;;;;;12.41;100.00;102005.34;5056010;28;20469;-69
2021/09/22 03:24:54;;;;;;;2.10;1.70;;;;;;;12.39;100.00;102002.91;5055858;28;20450;-69
2021/09/22 03:27:21;;;;;;;4.30;1.70;;;;;;;12.35;100.00;102010.81;5055619;28;20939;-69
2021/09/22 03:29:47;;;;;;;7.93;2.00;;;;;;;12.28;100.00;102020.34;5055922;28;20442;-69
2021/09/22 03:32:14;;;;;;;4.30;1.93;;;;;;;12.30;100.00;102016.25;5055798;28;20465;-69
2021/09/22 03:34:40;;;;;;;5.40;1.70;;;;;;;12.31;100.00;102025.25;5055419;28;20489;-69
2021/09/22 03:37:07;;;;;;;8.77;2.13;;;;;;;12.33;100.00;102017.59;5055359;28;21002;-69
2021/09/22 03:39:35;;;;;;;9.70;1.20;;;;;;;12.29;100.00;102027.41;5055751;28;20469;-69
2021/09/22 03:42:02;;;;;;;2.20;1.30;;;;;;;12.32;100.00;102018.69;5055668;28;20445;-69
2021/09/22 03:44:28;;;;;;;5.47;1.27;;;;;;;12.33;100.00;102025.75;5055599;28;20832;-69
2021/09/22 03:46:55;;;;;;;4.93;1.70;;;;;;;12.33;100.00;102021.13;5055697;28;20438;-69
2021/09/22 03:49:21;;;;;;;4.33;1.73;;;;;;;12.34;100.00;102020.03;5055573;28;20469;-70
2021/09/22 03:51:48;;;;;;;2.30;1.20;;;;;;;12.27;100.00;102014.09;5055135;28;20966;-69
2021/09/22 03:54:14;;;;;;;8.93;1.53;;;;;;;12.26;100.00;102020.63;5055040;28;20972;-70
2021/09/22 03:56:42;;;;;;;3.83;3.20;;;;;;;12.22;100.00;102021.44;5055043;28;21009;-69
2021/09/22 03:59:09;;;;;;;2.10;1.90;;;;;;;12.19;100.00;102024.72;5055360;28;20811;-70
2021/09/22 04:01:35;;;;;;;5.70;1.37;;;;;;;12.16;100.00;102025.25;5055032;28;20848;-69
2021/09/22 04:04:02;;;;;;;9.77;2.47;;;;;;;12.14;100.00;102033.69;5054902;28;21014;-69
2021/09/22 04:06:28;;;;;;;2.00;1.40;;;;;;;12.12;100.00;102027.72;5055197;28;20445;-70
2021/09/22 04:08:55;;;;;;;2.53;1.30;;;;;;;12.09;100.00;102028.28;5055180;28;20517;-69
2021/09/22 04:11:21;;;;;;;1.70;1.13;;;;;;;12.03;100.00;102026.66;5055128;28;20449;-68
2021/09/22 04:13:49;;;;;;;18.73;2.77;;;;;;;12.00;100.00;102027.22;5054979;28;20462;-68
2021/09/22 04:16:16;;;;;;;1.80;0.83;;;;;;;11.98;100.00;102029.38;5054608;28;20941;-69
2021/09/22 04:18:42;;;;;;;1.20;0.93;;;;;;;11.94;100.00;102045.41;5054968;28;20446;-69
2021/09/22 04:21:09;;;;;;;16.27;2.20;;;;;;;11.96;100.00;102034.28;5054982;28;20480;-74
2021/09/22 04:23:35;;;;;;;7.83;1.77;;;;;;;11.86;100.00;102038.66;5054518;28;20827;-67
2021/09/22 04:26:02;;;;;;;2.10;1.43;;;;;;;11.79;100.00;102024.50;5054810;28;20446;-69
2021/09/22 04:28:28;;;;;;;1.53;1.30;;;;;;;11.81;100.00;102032.38;5054493;28;20944;-68
2021/09/22 04:30:56;;;;;;;2.20;1.23;;;;;;;11.79;100.00;102037.25;5054689;28;20442;-69
2021/09/22 04:33:22;;;;;;;2.20;1.20;;;;;;;11.79;100.00;102043.50;5054237;28;20852;-68
2021/09/22 04:35:49;;;;;;;6.23;1.70;;;;;;;11.78;100.00;102030.22;5054660;28;20493;-67
2021/09/22 04:38:15;;;;;;;14.87;2.23;;;;;;;11.63;100.00;102048.13;5054591;28;20450;-68
2021/09/22 04:40:42;;;;;;;3.33;1.50;;;;;;;11.72;100.00;102042.16;5054679;28;20446;-69
2021/09/22 04:43:08;;;;;;;5.20;1.77;;;;;;;11.73;100.00;102047.31;5054443;28;20453;-68
2021/09/22 04:45:35;;;;;;;2.33;1.27;;;;;;;11.68;100.00;102051.91;5054418;28;20442;-66
2021/09/22 04:48:03;;;;;;;4.30;1.23;;;;;;;11.75;100.00;102061.41;5053998;28;20447;-67
2021/09/22 04:50:29;;;;;;;5.30;1.60;;;;;;;11.77;100.00;102063.84;5053958;28;20450;-67
2021/09/22 04:52:56;;;;;;;8.13;1.70;;;;;;;11.81;100.00;102068.47;5053825;28;20465;-68
2021/09/22 04:55:23;;;;;;;16.53;1.63;;;;;;;11.83;100.00;102069.06;5054201;28;20446;-68
2021/09/22 04:57:49;;;;;;;3.67;1.50;;;;;;;11.91;100.00;102066.84;5054172;28;20490;-67
2021/09/22 05:00:16;;;;;;;5.67;1.77;;;;;;;11.89;100.00;102058.19;5054129;28;20445;-67
2021/09/22 05:02:43;;;;;;;1.00;0.90;;;;;;;11.84;100.00;102062.53;5054103;28;20438;-67
2021/09/22 05:05:12;;;;;;;4.10;1.67;;;;;;;11.79;100.00;102072.56;5053710;28;20474;-67
2021/09/22 05:07:39;;;;;;;1.77;1.10;;;;;;;11.83;100.00;102076.38;5054059;28;20457;-68
2021/09/22 05:10:07;;;;;;;3.83;1.40;;;;;;;11.93;100.00;102081.00;5053920;28;20817;-68
2021/09/22 05:12:33;;;;;;;11.77;2.33;;;;;;;12.00;100.00;102084.25;5053992;28;20449;-68
2021/09/22 05:15:00;;;;;;;1.40;1.23;;;;;;;12.02;100.00;102080.16;5053791;28;20464;-67
2021/09/22 05:17:26;;;;;;;4.53;1.67;;;;;;;12.02;100.00;102082.06;5053843;28;20485;-67
2021/09/22 05:19:53;;;;;;;2.23;1.60;;;;;;;12.00;100.00;102076.91;5053831;28;20815;-67
2021/09/22 05:22:21;;;;;;;2.63;1.47;;;;;;;12.05;100.00;102084.25;5053792;28;20492;-67
2021/09/22 05:24:47;;;;;;;5.47;4.73;;;;;;;12.10;100.00;102086.94;5053603;28;20462;-68
2021/09/22 05:27:14;;;;;;;1.97;1.43;;;;;;;12.15;100.00;102077.97;5053328;28;21009;-68
2021/09/22 05:29:40;;;;;;;5.60;1.60;;;;;;;12.19;100.00;102081.78;5053374;28;20450;-68
2021/09/22 05:32:08;;;;;;;2.40;1.50;;;;;;;12.21;100.00;102087.72;5053621;28;20453;-67
2021/09/22 05:34:34;;;;;;;8.13;1.40;;;;;;;12.24;100.00;102100.78;5053174;28;20481;-67
2021/09/22 05:37:01;;;;;;;3.77;1.73;;;;;;;12.24;100.00;102090.72;5053474;28;20500;-68
2021/09/22 05:39:28;;;;;;;9.63;2.20;;;;;;;12.26;100.00;102104.84;5062197;22;20490;-69
2021/09/22 05:41:55;;;;;;;4.63;2.10;;;;;;;12.30;100.00;102089.59;5032909;28;20983;-70
2021/09/22 05:44:21;;;;;;;3.57;1.63;;;;;;;12.35;100.00;102095.06;5032886;28;20957;-68
2021/09/22 05:46:48;;;;;;;12.40;1.83;;;;;;;12.38;100.00;102102.63;5033553;28;20447;-69
2021/09/22 05:49:14;;;;;;;1.93;1.17;;;;;;;12.43;100.00;102106.44;5033419;28;20490;-71
2021/09/22 05:51:41;;;;;;;8.13;1.50;;;;;;;12.44;100.00;102102.63;5033086;28;20885;-71
2021/09/22 05:54:07;;;;;;;2.87;1.83;;;;;;;12.37;100.00;102109.16;5033386;28;20454;-71
2021/09/22 05:56:35;;;;;;;5.87;1.87;;;;;;;12.40;100.00;102107.81;5033263;28;20479;-70
2021/09/22 05:59:01;;;;;;;3.80;1.40;;;;;;;12.45;100.00;102115.13;5032997;28;20840;-71
2021/09/22 06:01:28;;;;;;;2.10;1.23;;;;;;;12.52;100.00;102121.88;5032439;28;20454;-71
2021/09/22 06:03:54;;;;;;;1.60;1.13;;;;;;;12.59;100.00;102119.69;5032964;28;20940;-71
2021/09/22 06:06:21;;;;;;;8.10;2.30;;;;;;;12.67;100.00;102114.81;5033348;28;20469;-72
2021/09/22 06:08:47;;;;;;;6.60;1.77;;;;;;;12.72;100.00;102118.31;5033150;28;20490;-72
2021/09/22 06:11:14;;;;;;;4.80;2.13;;;;;;;12.66;100.00;102119.44;5033194;28;20453;-73
2021/09/22 06:13:42;;;;;;;6.20;1.70;;;;;;;12.74;100.00;102113.38;5033419;28;20458;-72
2021/09/22 06:16:08;;;;;;;3.07;1.77;;;;;;;12.75;100.00;102131.34;5034242;28;20816;-72
2021/09/22 06:18:35;;;;;;;4.87;1.37;;;;;;;12.80;100.00;102127.81;5037342;28;20443;-72
2021/09/22 06:21:04;;;;;;;1.63;0.90;;;;;;;12.85;100.00;102130.50;5037263;28;20504;-73
2021/09/22 06:23:30;;;;;;;1.10;1.00;;;;;;;12.91;100.00;102120.41;5037231;28;20451;-72
2021/09/22 06:25:57;;;;;;;4.83;1.60;;;;;;;12.90;100.00;102121.50;5037202;28;20451;-73
2021/09/22 06:28:23;;;;;;;1.43;1.13;;;;;;;12.90;100.00;102126.94;5037189;28;20442;-72
2021/09/22 06:30:51;;;;;;;11.13;2.40;;;;;;;12.86;100.00;102121.25;5037036;28;20466;-72
2021/09/22 06:33:17;;;;;;;5.33;1.90;;;;;;;12.85;100.00;102130.50;5037020;28;20447;-72
2021/09/22 06:35:44;;;;;;;2.93;1.53;;;;;;;12.93;100.00;102142.72;5036940;28;20443;-72
2021/09/22 06:38:11;;;;;;;4.67;2.10;;;;;;;12.98;100.00;102132.63;5036876;28;20486;-72
2021/09/22 06:40:38;;;;;;;12.73;2.07;;;;;;;12.97;100.00;102139.16;5036531;28;20536;-73
2021/09/22 06:43:06;;;;;;;9.13;1.70;;;;;;;13.00;100.00;102141.31;5036814;28;20470;-73
2021/09/22 06:45:33;;;;;;;10.53;2.00;;;;;;;13.03;100.00;102154.34;5036756;28;20458;-72
2021/09/22 06:48:01;;;;;;;4.13;2.67;;;;;;;13.09;100.00;102138.81;5036763;28;20439;-72
2021/09/22 06:50:29;;;;;;;10.30;1.80;;;;;;;13.09;100.00;102144.25;5036286;28;20489;-72
2021/09/22 06:52:56;;;;;;;9.20;1.10;;;;;;;13.07;100.00;102155.44;5036378;28;20983;-72
2021/09/22 06:55:22;;;;;;;5.80;2.00;;;;;;;13.10;100.00;102148.59;5036612;28;20450;-73
2021/09/22 06:57:49;;;;;;;9.17;1.90;;;;;;;13.17;100.00;102142.88;5036462;28;20486;-74
2021/09/22 07:00:16;;;;;;;7.43;1.80;;;;;;;13.24;100.00;102144.22;5036531;28;20823;-73
2021/09/22 07:02:43;;;;;;;2.90;1.40;;;;;;;13.30;100.00;102145.81;5036691;28;20435;-72
2021/09/22 07:05:13;;;;;;;3.80;1.43;;;;;;;13.38;100.00;102153.38;5036250;28;20442;-72
2021/09/22 07:07:40;;;;;;;10.77;1.90;;;;;;;13.43;100.00;102147.09;5036071;28;20458;-72
2021/09/22 07:10:07;;;;;;;13.73;1.67;;;;;;;13.39;100.00;102159.66;5036251;28;20458;-72
2021/09/22 07:12:34;;;;;;;7.43;2.03;;;;;;;13.41;100.00;102156.63;5036446;28;20446;-73
2021/09/22 07:15:01;;;;;;;6.60;1.63;;;;;;;13.42;100.00;102155.56;5036254;28;20556;-73
2021/09/22 07:17:28;;;;;;;8.43;1.80;;;;;;;13.41;100.00;102151.19;5035876;28;21007;-73
2021/09/22 07:19:54;;;;;;;8.60;2.30;;;;;;;13.35;100.00;102150.41;5035785;28;20463;-73
2021/09/22 07:22:22;;;;;;;2.53;1.43;;;;;;;13.38;100.00;102156.13;5036206;28;20817;-73
2021/09/22 07:24:49;;;;;;;8.23;1.80;;;;;;;13.37;100.00;102154.50;5036149;28;20542;-74
2021/09/22 07:27:15;;;;;;;4.50;1.30;;;;;;;13.42;100.00;102150.91;5035709;28;20466;-74
2021/09/22 07:29:42;;;;;;;8.17;2.67;;;;;;;13.38;100.00;102166.19;5035946;28;20456;-73
2021/09/22 07:32:10;;;;;;;5.60;1.97;;;;;;;13.48;100.00;102173.47;5035959;28;20447;-73
2021/09/22 07:34:37;;;;;;;2.53;1.40;;;;;;;13.38;100.00;102171.63;5035974;28;20450;-73
2021/09/22 07:37:07;;;;;;;3.83;1.37;;;;;;;13.41;100.00;102170.25;5035896;28;20491;-73
2021/09/22 07:39:36;;;;;;;15.73;2.03;;;;;;;13.46;100.00;102172.94;5035562;28;20475;-73
2021/09/22 07:42:03;;;;;;;7.30;2.17;;;;;;;13.50;100.00;102174.00;5035941;28;20447;-73
2021/09/22 07:44:30;;;;;;;5.10;2.00;;;;;;;13.64;100.00;102180.47;5035805;28;20431;-73
2021/09/22 07:46:57;;;;;;;2.70;1.00;;;;;;;13.68;100.00;102181.53;5035735;28;20537;-73
2021/09/22 07:49:23;;;;;;;14.33;3.00;;;;;;;13.71;100.00;102180.13;5035678;28;20533;-73
2021/09/22 07:51:50;;;;;;;6.63;1.53;;;;;;;13.63;100.00;102182.38;5035346;28;20527;-73
2021/09/22 07:54:17;;;;;;;6.33;1.67;;;;;;;13.60;100.00;102191.09;5035523;28;20447;-73
2021/09/22 07:56:45;;;;;;;18.03;1.83;;;;;;;13.67;100.00;102193.50;5035373;28;20518;-72
2021/09/22 07:59:11;;;;;;;9.37;2.13;;;;;;;13.66;100.00;102191.88;5035403;28;20462;-72
2021/09/22 08:01:38;;;;;;;9.57;2.70;;;;;;;13.76;100.00;102194.53;5035349;28;20466;-72
2021/09/22 08:04:04;;;;;;;4.50;2.27;;;;;;;13.73;100.00;102191.56;5035276;28;20443;-72
2021/09/22 08:06:31;;;;;;;5.23;2.27;;;;;;;13.76;100.00;102199.16;5035381;28;20435;-72
2021/09/22 08:08:57;;;;;;;11.67;2.13;;;;;;;13.77;100.00;102195.38;5035181;28;20475;-72
2021/09/22 08:11:24;;;;;;;4.83;1.47;;;;;;;13.69;100.00;102187.78;5034911;28;20949;-72
2021/09/22 08:13:51;;;;;;;15.03;2.20;;;;;;;13.76;100.00;102194.53;5034882;28;20998;-72
2021/09/22 08:16:18;;;;;;;10.27;2.07;;;;;;;13.79;100.00;102198.59;5035145;28;20439;-72
2021/09/22 08:18:46;;;;;;;8.43;2.10;;;;;;;13.89;100.00;102204.78;5034954;28;20483;-71
2021/09/22 08:21:13;;;;;;;24.23;2.50;;;;;;;13.93;100.00;102210.47;5035031;28;20458;-71
2021/09/22 08:23:40;;;;;;;18.23;1.70;;;;;;;13.99;100.00;102200.34;5035000;28;20446;-71
2021/09/22 08:26:06;;;;;;;6.40;1.57;;;;;;;14.02;100.00;102200.59;5034945;28;20471;-71
2021/09/22 08:28:33;;;;;;;11.13;2.20;;;;;;;14.03;100.00;102207.69;5034877;28;20442;-71
2021/09/22 08:31:01;;;;;;;15.83;1.70;;;;;;;14.00;100.00;102205.53;5034735;28;20467;-71
2021/09/22 08:33:27;;;;;;;12.83;1.70;;;;;;;14.06;100.00;102209.03;5034799;28;20447;-71
2021/09/22 08:35:54;;;;;;;7.20;2.00;;;;;;;14.08;100.00;102206.84;5034734;28;20443;-71
2021/09/22 08:38:20;;;;;;;10.53;1.43;;;;;;;14.26;100.00;102197.16;5033990;28;20489;-71
2021/09/22 08:40:46;;;;;;;6.67;1.90;;;;;;;14.43;100.00;102194.78;5034054;28;20478;-71
2021/09/22 08:43:14;;;;;;;10.80;2.00;;;;;;;14.52;100.00;102197.75;5034568;28;20486;-71
2021/09/22 08:45:42;;;;;;;9.10;1.53;;;;;;;14.53;100.00;102202.13;5034598;28;20442;-70
2021/09/22 08:48:11;;;;;;;12.30;1.50;;;;;;;14.60;100.00;102197.13;5034522;28;20443;-70
2021/09/22 08:50:38;;;;;;;8.87;2.57;;;;;;;14.63;100.00;102196.56;5034362;28;20478;-71
2021/09/22 08:53:04;;;;;;;7.63;2.63;;;;;;;14.74;100.00;102192.63;5034398;28;20441;-71
2021/09/22 08:55:30;;;;;;;9.03;1.97;;;;;;;14.84;100.00;102195.22;5034391;28;20852;-71
2021/09/22 08:57:57;;;;;;;9.20;2.00;;;;;;;14.88;99.64;102192.75;5034131;28;20482;-71
2021/09/22 09:00:23;;;;;;;9.23;1.97;;;;;;;14.82;99.43;102194.69;5034187;28;20517;-71
2021/09/22 09:02:50;;;;;;;14.33;2.80;;;;;;;15.02;98.93;102198.31;5034193;28;20451;-71
2021/09/22 09:05:20;;;;;;;3.20;1.80;;;;;;;15.17;99.27;102198.09;5034237;28;20443;-71
2021/09/22 09:07:48;;;;;;;6.00;2.57;;;;;;;15.37;99.15;102200.59;5034147;28;20497;-71
2021/09/22 09:10:17;;;;;;;8.47;1.43;;;;;;;15.41;97.57;102208.19;5034049;28;20478;-71
2021/09/22 09:12:43;;;;;;;7.33;1.60;;;;;;;15.45;96.30;102195.56;5034034;28;20442;-71
2021/09/22 09:15:12;;;;;;;16.27;2.07;;;;;;;15.37;95.90;102188.84;5033736;28;20427;-71
2021/09/22 09:17:42;;;;;;;8.90;2.07;;;;;;;15.38;95.92;102185.00;5033950;28;20578;-71
2021/09/22 09:20:19;;;;;;;9.27;2.90;;;;;;;15.50;96.88;102198.25;5033886;28;20463;-71
2021/09/22 09:23:05;;;;;;;13.80;2.77;;;;;;;15.58;95.59;102197.56;5033953;28;20431;-71
2021/09/22 09:25:35;;;;;;;16.30;1.47;;;;;;;15.62;94.78;102201.31;5033921;28;20439;-71
2021/09/22 09:28:20;;;;;;;4.57;1.03;;;;;;;15.46;94.82;102194.47;5033854;28;20426;-71
2021/09/22 09:30:49;;;;;;;11.30;3.07;;;;;;;15.55;95.59;102198.16;5033713;28;20498;-71
2021/09/22 09:33:30;;;;;;;9.70;2.50;;;;;;;15.60;94.51;102187.16;5033710;28;20457;-71
2021/09/22 09:36:00;;;;;;;5.43;1.50;;;;;;;15.63;93.65;102197.50;5033723;28;20423;-71
2021/09/22 09:38:31;;;;;;;10.97;1.90;;;;;;;15.71;94.20;102199.56;5033579;28;20482;-71
2021/09/22 09:40:58;;;;;;;10.00;1.53;;;;;;;15.86;94.47;102191.16;5033216;28;20486;-71
2021/09/22 09:43:24;;;;;;;5.70;1.60;;;;;;;15.95;93.99;102198.69;5033579;28;20450;-71
2021/09/22 09:45:50;;;;;;;4.33;1.43;;;;;;;15.91;93.64;102194.94;5033529;28;20450;-71
2021/09/22 09:48:20;;;;;;;12.50;1.97;;;;;;;16.03;92.96;102198.84;5033403;28;20435;-71
2021/09/22 09:50:49;;;;;;;7.67;4.10;;;;;;;16.04;91.38;102192.25;5033172;28;20455;-71
2021/09/22 09:53:27;;;;;;;5.17;1.40;;;;;;;16.08;91.57;102195.19;5033420;28;20443;-71
2021/09/22 09:55:56;;;;;;;6.80;1.50;;;;;;;16.12;91.79;102193.50;5033352;28;20442;-71
2021/09/22 09:58:23;;;;;;;9.07;1.70;;;;;;;16.13;92.37;102195.91;5033277;28;20489;-71
2021/09/22 10:00:53;;;;;;;4.37;1.80;;;;;;;16.17;91.54;102198.88;5032922;28;20486;-70
2021/09/22 10:03:22;;;;;;;14.90;1.80;;;;;;;16.26;91.19;102199.00;5033308;28;20443;-71
2021/09/22 10:05:50;;;;;;;1.93;1.37;;;;;;;16.35;90.67;102189.00;5033204;28;20451;-70
2021/09/22 10:08:18;;;;;;;6.63;2.10;;;;;;;16.49;90.37;102186.28;5032781;28;20933;-71
2021/09/22 10:10:48;;;;;;;5.63;1.60;;;;;;;16.56;89.26;102190.25;5033099;28;20467;-71
2021/09/22 10:13:16;;;;;;;22.80;2.57;;;;;;;16.54;89.44;102184.25;5033201;28;20447;-71
2021/09/22 10:15:44;;;;;;;5.20;1.30;;;;;;;16.57;89.46;102178.19;5033109;28;20451;-71
2021/09/22 10:18:12;;;;;;;8.77;1.10;;;;;;;16.57;87.45;102191.06;5032986;28;20487;-70
2021/09/22 10:20:39;;;;;;;3.27;1.33;;;;;;;16.59;87.35;102181.41;5032896;28;20482;-71
2021/09/22 10:23:06;;;;;;;11.40;1.60;;;;;;;16.61;87.68;102179.22;5033165;28;20447;-71
2021/09/22 10:25:33;;;;;;;7.73;1.73;;;;;;;16.66;86.63;102181.03;5033414;28;20447;-71
2021/09/22 10:28:01;;;;;;;6.77;1.63;;;;;;;16.71;87.35;102178.19;5033339;28;20447;-71
2021/09/22 10:30:37;;;;;;;7.73;1.63;;;;;;;16.83;87.66;102169.53;5033147;28;20469;-71
2021/09/22 10:33:04;;;;;;;7.73;1.73;;;;;;;16.88;87.33;102178.44;5033299;28;20446;-71
2021/09/22 10:35:39;;;;;;;10.97;2.70;;;;;;;16.93;87.11;102180.25;5033426;28;20446;-71
2021/09/22 10:38:39;;;;;;;9.93;1.70;;;;;;;17.04;86.83;102184.41;5033270;28;20470;-71
2021/09/22 10:41:06;;;;;;;7.50;2.07;;;;;;;17.17;87.74;102176.47;4972049;28;20605;-71
2021/09/22 10:43:39;;;;;;;13.00;1.97;;;;;;;17.15;86.81;102174.06;5020517;28;20455;-71
2021/09/22 10:46:14;;;;;;;4.07;1.60;;;;;;;17.20;85.71;102171.22;5033970;28;20431;-71
2021/09/22 10:48:42;;;;;;;16.67;1.80;;;;;;;17.28;85.52;102167.75;5033235;28;20434;-71
2021/09/22 10:51:10;;;;;;;5.57;1.87;;;;;;;17.27;86.26;102168.88;5032886;28;20451;-71
2021/09/22 10:53:40;;;;;;;12.40;1.97;;;;;;;17.53;85.66;102160.91;5032900;28;20443;-71
2021/09/22 10:56:08;;;;;;;5.83;2.10;;;;;;;17.69;83.60;102164.06;5032856;28;20439;-71
2021/09/22 10:58:41;;;;;;;16.40;2.73;;;;;;;17.79;81.49;102161.09;5032407;28;21000;-71
2021/09/22 11:01:09;;;;;;;8.07;1.80;;;;;;;17.86;80.90;102157.94;5032525;28;20925;-71
2021/09/22 11:03:55;;;;;;;6.90;1.63;;;;;;;17.92;81.27;102148.47;5036090;28;20466;-71
2021/09/22 11:07:08;;;;;;;11.63;1.43;;;;;;;18.02;82.56;102152.91;5036538;28;20478;-71
2021/09/22 11:09:36;;;;;;;2.20;1.47;;;;;;;18.13;81.29;102151.50;5036402;28;20463;-71
2021/09/22 11:12:13;;;;;;;6.30;1.43;;;;;;;17.86;79.02;102153.28;5036415;28;20478;-71
2021/09/22 11:14:46;;;;;;;9.60;1.87;;;;;;;18.02;79.63;102150.97;5036404;28;20434;-71
2021/09/22 11:17:17;;;;;;;5.87;1.37;;;;;;;18.21;79.17;102158.97;5036359;28;20427;-71
2021/09/22 11:19:46;;;;;;;2.87;1.17;;;;;;;18.28;79.72;102164.00;5036220;28;20490;-71